Domov               UVHVVR             MKGP            O straneh              
ZDRAVSTVENO VARSTVO RASTLIN
  MREŽA AGROMET. POSTAJ
 ► PROGNOSTIČNA OBVESTILA
AGROMETEOROLOŠKI PODATKI -
ARSO
OBVLADOVANJE TVEGANJ ZARADI
NEUGODNIH VREMENSKIH RAZMER
  ► NARAVNE NESREČE
  ► SUŠA/MOČA
  ► NAMAKANJE
  ► ŽLED (gozdarstvo)
KARTOGRAFSKI PRIKAZI
SPLETNE POVEZAVE
PROJEKTI IN PUBLIKACIJE

AGROMETEOROLOŠKA MREŽA: VREMENSKE POSTAJE IN FENOLOŠKA OPAZOVANJA

Pregled podatkov za lokacijo Savci, meteorološka postaja 27393

Pregled senzorjev na lokaciji

ID Ime Zadnja
vrednost
Datum
zadnje
spremembe
Tip
senzorja
942 Omočenost lista (U) 0 U 19.10.2017 15:46 A730WET
943 Temperatura 2 m ( °C) 18,63 °C 19.10.2017 15:46 Generic -40 - +60 °C
944 Relativna vlaga 2 m (% RH) 68,08 % RH 19.10.2017 15:46 Generic 0 - 100 %
1378 Padavine 0.2 mm (mm) 0 mm 19.10.2017 15:46 Generic 0.2 mm

Pregled podatkov zadnjih 24 ur

Zap.
št.
Datum in čas Savci
Omočenost
lista
Padavine
0.2
mm
Relativna
vlaga
2
m
Temperatura
2
m
0 19.10.2017 15:00 0 0 68,08 18,63
1 19.10.2017 14:30 0 0 66,4 19,1
2 19.10.2017 14:00 0 0 66,57 18,71
3 19.10.2017 13:30 0 0 67,5 18,49
4 19.10.2017 13:00 0 0 68,64 18,36
5 19.10.2017 12:30 0 0 67,67 18,36
6 19.10.2017 12:00 0 0 68,74 17,97
7 19.10.2017 11:30 0 0 63,66 18,17
8 19.10.2017 11:00 0 0 59,37 18,02
9 19.10.2017 10:30 0 0 67,96 16,26
10 19.10.2017 10:00 0 0 75,38 15,29
11 19.10.2017 09:30 2 0 71,79 15,43
12 19.10.2017 09:00 3 0 76,97 13,53
13 19.10.2017 08:30 3 0 84,54 10,92
14 19.10.2017 08:00 3 0 88,82 8,84
15 19.10.2017 07:30 3 0 96,8 7,13
16 19.10.2017 07:00 3 0 99,93 4,98
17 19.10.2017 06:30 3 0 99,93 4,57
18 19.10.2017 06:00 3 0 99,93 5,32
19 19.10.2017 05:30 3 0 99,93 6,15
20 19.10.2017 05:00 3 0 99,93 4,88
21 19.10.2017 04:30 3 0 99,93 5,37
22 19.10.2017 04:00 3 0 99,93 5,57
23 19.10.2017 03:30 3 0 99,93 5,76
24 19.10.2017 03:00 3 0 99,93 6,28
25 19.10.2017 02:30 3 0 99,93 6,86
26 19.10.2017 02:00 3 0 97,39 7,11
27 19.10.2017 01:30 3 0 97,19 7,42
28 19.10.2017 01:00 3 0 96,26 7,89
29 19.10.2017 00:30 3 0 94,7 8,91
30 19.10.2017 00:00 3 0 95,04 8,99
31 18.10.2017 23:30 3 0 92,41 9,13
32 18.10.2017 23:00 4 0 95,21 8,79
33 18.10.2017 22:30 4 0 93,53 9,08
34 18.10.2017 22:00 3 0 92,41 9,6
35 18.10.2017 21:30 3 0 90,26 9,52
36 18.10.2017 21:00 4 0 92,58 9,77
37 18.10.2017 20:30 3 0 92,16 10,5
38 18.10.2017 20:00 3 0 93,16 10,23
39 18.10.2017 19:30 3 0 91,82 10,92
40 18.10.2017 19:00 0 0 85,18 12,72
41 18.10.2017 18:30 0 0 83,71 14,6
42 18.10.2017 18:00 0 0 67,91 16,56
43 18.10.2017 17:30 0 0 58,8 18,46
44 18.10.2017 17:00 0 0 55,75 19,44
© 2011 Ministrstvo za kmetijstvo, gozdarstvo in prehrano. Vse pravice pridržane.